Time;durP1;ratioP1;P1;durP2;ratioP2;P2;SDS_P1;SDS_P2;PMS_P1;PMS_P2;Temp;Humidity;BMP_temperature;BMP_pressure;BME280_temperature;BME280_humidity;BME280_pressure;Samples;Min_cycle;Max_cycle;Signal;HPM_P1;HPM_P2
2024/03/14 00:00:48;;;;;;;5.10;3.60;;;14.20;99.90;;;;;;4948290;29;20966;-75
2024/03/14 00:03:14;;;;;;;3.40;3.10;;;14.10;99.90;;;;;;4932476;29;20209;-74
2024/03/14 00:05:40;;;;;;;4.23;3.37;;;14.10;99.90;;;;;;4944560;29;20631;-74
2024/03/14 00:08:05;;;;;;;5.47;3.57;;;14.10;99.90;;;;;;4940736;29;20581;-75
2024/03/14 00:10:32;;;;;;;3.63;3.10;;;14.10;99.90;;;;;;4932252;29;20193;-74
2024/03/14 00:12:58;;;;;;;3.73;3.30;;;14.10;99.90;;;;;;4934266;29;20704;-76
2024/03/14 00:15:24;;;;;;;4.27;3.60;;;14.10;99.90;;;;;;4934311;29;20680;-74
2024/03/14 00:17:50;;;;;;;5.40;4.90;;;14.10;99.90;;;;;;4933817;29;20200;-75
2024/03/14 00:20:16;;;;;;;6.63;3.23;;;14.10;99.90;;;;;;4933573;29;21182;-75
2024/03/14 00:22:41;;;;;;;4.13;3.23;;;14.10;99.90;;;;;;4932089;29;20212;-75
2024/03/14 00:25:10;;;;;;;4.20;3.80;;;14.00;99.90;;;;;;4947113;29;20200;-75
2024/03/14 00:27:39;;;;;;;3.67;3.17;;;14.00;99.90;;;;;;4934661;28;20600;-74
2024/03/14 00:30:10;;;;;;;3.70;3.23;;;14.00;99.90;;;;;;4934250;29;20924;-74
2024/03/14 00:32:37;;;;;;;3.13;2.70;;;14.10;99.90;;;;;;4937957;29;20620;-74
2024/03/14 00:35:03;;;;;;;3.50;3.13;;;14.10;99.90;;;;;;4945083;29;20588;-74
2024/03/14 00:37:29;;;;;;;2.63;2.37;;;14.10;99.90;;;;;;4945232;29;20576;-74
2024/03/14 00:39:55;;;;;;;3.27;2.80;;;14.10;99.90;;;;;;4950305;29;20596;-74
2024/03/14 00:42:21;;;;;;;5.20;3.10;;;14.10;99.90;;;;;;4956659;28;20723;-74
2024/03/14 00:44:47;;;;;;;7.47;3.27;;;14.10;99.90;;;;;;4940746;29;20205;-74
2024/03/14 00:47:14;;;;;;;4.70;2.80;;;14.10;99.90;;;;;;4933509;29;20177;-73
2024/03/14 00:49:40;;;;;;;4.10;3.57;;;14.20;99.90;;;;;;4937343;29;20616;-74
2024/03/14 00:52:06;;;;;;;3.67;2.77;;;14.10;99.90;;;;;;4936703;29;20644;-74
2024/03/14 00:54:33;;;;;;;3.67;3.23;;;14.20;99.90;;;;;;4920115;29;20601;-75
2024/03/14 00:57:00;;;;;;;4.27;2.90;;;14.20;99.90;;;;;;4936056;29;20177;-74
2024/03/14 00:59:26;;;;;;;5.57;3.83;;;14.20;99.90;;;;;;4953092;29;20619;-74
2024/03/14 01:01:54;;;;;;;3.40;2.77;;;14.20;99.90;;;;;;4920207;29;21062;-74
2024/03/14 01:04:20;;;;;;;4.30;2.93;;;14.20;99.90;;;;;;4927834;29;20644;-74
2024/03/14 01:06:47;;;;;;;3.43;3.07;;;14.20;99.90;;;;;;4936884;29;20641;-74
2024/03/14 01:09:14;;;;;;;5.00;3.00;;;14.10;99.90;;;;;;4936842;29;20635;-74
2024/03/14 01:11:40;;;;;;;3.17;2.33;;;14.20;99.90;;;;;;4938982;28;20594;-75
2024/03/14 01:14:11;;;;;;;3.70;2.37;;;14.20;99.90;;;;;;4947000;29;20572;-74
2024/03/14 01:16:39;;;;;;;3.63;2.67;;;14.20;99.90;;;;;;4928561;29;20596;-74
2024/03/14 01:19:06;;;;;;;3.10;2.70;;;14.10;99.90;;;;;;4935692;29;20616;-74
2024/03/14 01:21:38;;;;;;;3.50;2.40;;;14.10;99.90;;;;;;4935276;29;20601;-74
2024/03/14 01:24:04;;;;;;;6.30;3.40;;;14.10;99.90;;;;;;4936786;29;20589;-74
2024/03/14 01:26:29;;;;;;;4.33;3.10;;;14.10;99.90;;;;;;4943400;29;20636;-74
2024/03/14 01:28:56;;;;;;;3.50;2.97;;;14.00;99.90;;;;;;4935443;29;20216;-74
2024/03/14 01:31:21;;;;;;;3.73;2.87;;;14.00;99.90;;;;;;4954527;29;20184;-74
2024/03/14 01:33:47;;;;;;;4.43;2.97;;;14.00;99.90;;;;;;4944898;28;20611;-76
2024/03/14 01:36:14;;;;;;;3.53;2.53;;;14.00;99.90;;;;;;4939481;29;20581;-74
2024/03/14 01:38:40;;;;;;;4.77;3.47;;;13.90;99.90;;;;;;4920437;29;20213;-74
2024/03/14 01:41:17;;;;;;;5.10;3.23;;;13.90;99.90;;;;;;4950987;28;20604;-74
2024/03/14 01:43:50;;;;;;;3.10;2.80;;;13.90;99.90;;;;;;4936530;29;20256;-74
2024/03/14 01:46:15;;;;;;;5.00;2.60;;;13.90;99.90;;;;;;4935401;29;20676;-74
2024/03/14 01:48:41;;;;;;;3.40;3.03;;;13.90;99.90;;;;;;4935570;29;20648;-74
2024/03/14 01:51:07;;;;;;;4.03;2.50;;;13.90;99.90;;;;;;4935020;29;20531;-74
2024/03/14 01:53:33;;;;;;;5.13;3.00;;;13.90;99.90;;;;;;4942697;28;20283;-74
2024/03/14 01:56:01;;;;;;;4.77;2.87;;;13.90;99.90;;;;;;4935040;29;20193;-74
2024/03/14 01:58:26;;;;;;;4.63;2.97;;;13.90;99.90;;;;;;4927195;29;20240;-74
2024/03/14 02:00:53;;;;;;;3.30;2.10;;;13.90;99.90;;;;;;4934890;29;20624;-74
2024/03/14 02:03:18;;;;;;;4.70;3.10;;;13.90;99.90;;;;;;4943315;29;20223;-74
2024/03/14 02:05:54;;;;;;;3.20;2.70;;;13.90;99.90;;;;;;4945314;28;20627;-73
2024/03/14 02:08:20;;;;;;;5.20;3.17;;;13.90;99.90;;;;;;4953780;29;20557;-73
2024/03/14 02:10:45;;;;;;;3.63;2.63;;;13.90;99.90;;;;;;4943567;28;20577;-73
2024/03/14 02:13:11;;;;;;;5.37;3.30;;;14.00;99.90;;;;;;4950307;28;20228;-74
2024/03/14 02:15:38;;;;;;;4.67;2.80;;;13.90;99.90;;;;;;4934343;29;20196;-74
2024/03/14 02:18:05;;;;;;;3.63;2.70;;;13.90;99.90;;;;;;4935438;29;20177;-74
2024/03/14 02:20:31;;;;;;;4.90;2.80;;;13.90;99.90;;;;;;4917986;29;21177;-74
2024/03/14 02:22:58;;;;;;;4.70;2.70;;;13.90;99.90;;;;;;4935260;29;20621;-74
2024/03/14 02:25:25;;;;;;;5.40;3.60;;;13.90;99.90;;;;;;4933986;29;20219;-74
2024/03/14 02:27:51;;;;;;;4.37;2.90;;;13.80;99.90;;;;;;4929219;29;20584;-74
2024/03/14 02:30:17;;;;;;;5.20;3.80;;;13.80;99.90;;;;;;4931523;29;20595;-74
2024/03/14 02:32:43;;;;;;;4.47;3.70;;;13.80;99.90;;;;;;4952033;28;20208;-73
2024/03/14 02:35:09;;;;;;;4.57;3.57;;;13.70;99.90;;;;;;4940812;28;20589;-73
2024/03/14 02:37:35;;;;;;;3.53;2.60;;;13.70;99.90;;;;;;4934170;29;20648;-73
2024/03/14 02:40:00;;;;;;;5.47;4.40;;;13.60;99.90;;;;;;4917818;29;20597;-74
2024/03/14 02:42:26;;;;;;;4.33;3.50;;;13.60;99.90;;;;;;4934925;29;20200;-74
2024/03/14 02:44:52;;;;;;;5.90;4.03;;;13.50;99.90;;;;;;4949264;29;20217;-74
2024/03/14 02:47:18;;;;;;;6.97;3.40;;;13.50;99.90;;;;;;4935211;29;20212;-74
2024/03/14 02:49:44;;;;;;;4.73;4.27;;;13.50;99.90;;;;;;4933595;29;20628;-74
2024/03/14 02:52:10;;;;;;;6.43;3.70;;;13.40;99.90;;;;;;4934519;29;20558;-74
2024/03/14 02:54:36;;;;;;;3.70;3.00;;;13.40;99.90;;;;;;4936616;29;20185;-74
2024/03/14 02:57:02;;;;;;;7.50;4.10;;;13.40;99.90;;;;;;4941178;29;20648;-74
2024/03/14 02:59:29;;;;;;;4.10;3.17;;;13.40;99.90;;;;;;4933876;29;20585;-74
2024/03/14 03:01:55;;;;;;;5.70;3.50;;;13.30;99.90;;;;;;4948917;28;20272;-74
2024/03/14 03:04:21;;;;;;;4.73;3.80;;;13.30;99.90;;;;;;4933899;29;20577;-74
2024/03/14 03:06:54;;;;;;;4.63;4.00;;;13.20;99.90;;;;;;4918261;29;20607;-74
2024/03/14 03:09:21;;;;;;;6.20;3.93;;;13.20;99.90;;;;;;4950519;29;20625;-74
2024/03/14 03:11:47;;;;;;;5.47;3.70;;;13.10;99.90;;;;;;4917601;29;20623;-74
2024/03/14 03:14:13;;;;;;;5.10;3.70;;;13.10;99.90;;;;;;4939765;29;20600;-74
2024/03/14 03:16:39;;;;;;;5.07;3.63;;;13.00;99.90;;;;;;4959077;28;20596;-74
2024/03/14 03:19:05;;;;;;;4.43;3.70;;;13.00;99.90;;;;;;4933681;29;20658;-74
2024/03/14 03:21:31;;;;;;;4.50;3.93;;;13.00;99.90;;;;;;4933156;29;20737;-74
2024/03/14 03:23:57;;;;;;;4.63;4.00;;;12.90;99.90;;;;;;4934781;29;20588;-74
2024/03/14 03:26:25;;;;;;;4.50;3.40;;;12.90;99.90;;;;;;4934445;29;20632;-74
2024/03/14 03:28:51;;;;;;;4.53;4.07;;;12.80;99.90;;;;;;4925068;29;20240;-74
2024/03/14 03:31:17;;;;;;;4.40;4.00;;;12.80;99.90;;;;;;4948875;29;20726;-74
2024/03/14 03:33:43;;;;;;;5.43;4.63;;;12.80;99.90;;;;;;4952135;28;20711;-74
2024/03/14 03:36:09;;;;;;;4.13;3.20;;;12.70;99.90;;;;;;4946944;28;20180;-74
2024/03/14 03:38:40;;;;;;;4.72;3.75;;;12.70;99.90;;;;;;4946601;29;20192;-75
2024/03/14 03:41:09;;;;;;;4.00;3.60;;;12.70;99.90;;;;;;4944059;29;20199;-74
2024/03/14 03:43:35;;;;;;;7.10;4.57;;;12.60;99.90;;;;;;4944539;28;20628;-74
2024/03/14 03:46:01;;;;;;;8.20;4.20;;;12.60;99.90;;;;;;4933831;29;20635;-74
2024/03/14 03:48:27;;;;;;;5.00;4.13;;;12.50;99.90;;;;;;4934334;29;20592;-74
2024/03/14 03:50:53;;;;;;;6.30;4.07;;;12.50;99.90;;;;;;4918020;29;20741;-74
2024/03/14 03:53:19;;;;;;;4.70;4.17;;;12.50;99.90;;;;;;4940352;29;20196;-74
2024/03/14 03:55:45;;;;;;;4.57;3.60;;;12.40;99.90;;;;;;4943306;29;20184;-74
2024/03/14 03:58:11;;;;;;;6.20;3.70;;;12.40;99.90;;;;;;4916807;29;20173;-74
2024/03/14 04:00:46;;;;;;;4.50;4.00;;;12.30;99.90;;;;;;4941481;29;20644;-74
2024/03/14 04:03:14;;;;;;;6.30;4.10;;;12.30;99.90;;;;;;4953830;28;20975;-74
2024/03/14 04:05:42;;;;;;;5.38;3.97;;;12.30;99.90;;;;;;4932008;29;20680;-74
2024/03/14 04:08:08;;;;;;;4.13;3.73;;;12.20;99.90;;;;;;4937865;29;20196;-74
2024/03/14 04:10:35;;;;;;;5.40;3.20;;;12.20;99.90;;;;;;4944293;28;20982;-74
2024/03/14 04:13:00;;;;;;;4.20;3.58;;;12.20;99.90;;;;;;4932272;29;20624;-74
2024/03/14 04:15:30;;;;;;;5.23;3.50;;;12.20;99.90;;;;;;4933711;29;20228;-74
2024/03/14 04:17:56;;;;;;;4.00;3.17;;;12.20;99.90;;;;;;4932523;29;20603;-74
2024/03/14 04:20:25;;;;;;;4.38;3.60;;;12.20;99.90;;;;;;4932153;29;20687;-74
2024/03/14 04:22:53;;;;;;;3.83;3.40;;;12.20;99.90;;;;;;4949192;28;20613;-74
2024/03/14 04:25:20;;;;;;;6.10;3.22;;;12.20;99.90;;;;;;4900947;29;20236;-74
2024/03/14 04:27:52;;;;;;;3.75;3.45;;;12.20;99.90;;;;;;4933480;29;20526;-74
2024/03/14 04:30:23;;;;;;;6.30;4.05;;;12.20;99.90;;;;;;4933538;29;20261;-74
2024/03/14 04:32:56;;;;;;;4.37;3.30;;;12.20;99.90;;;;;;4932252;29;20225;-74
2024/03/14 04:35:21;;;;;;;4.82;3.65;;;12.20;99.90;;;;;;4940343;29;20607;-74
2024/03/14 04:37:51;;;;;;;4.07;3.50;;;12.20;99.90;;;;;;4936945;29;20241;-74
2024/03/14 04:40:19;;;;;;;5.63;2.90;;;12.20;99.90;;;;;;4952513;28;20176;-74
2024/03/14 04:42:46;;;;;;;3.37;2.90;;;12.10;99.90;;;;;;4942568;28;20636;-74
2024/03/14 04:45:17;;;;;;;3.80;3.25;;;12.10;99.90;;;;;;4916390;29;20675;-74
2024/03/14 04:47:46;;;;;;;4.23;3.77;;;12.10;99.90;;;;;;4941326;29;20219;-74
2024/03/14 04:50:14;;;;;;;6.57;2.72;;;12.10;99.90;;;;;;4933115;29;20589;-74
2024/03/14 04:52:40;;;;;;;4.97;3.70;;;12.10;99.90;;;;;;4933081;29;20241;-74
2024/03/14 04:55:09;;;;;;;4.35;3.00;;;12.00;99.90;;;;;;4950939;29;20671;-74
2024/03/14 04:57:35;;;;;;;4.38;3.13;;;12.10;99.90;;;;;;4941374;29;20548;-74
2024/03/14 05:00:10;;;;;;;4.10;3.05;;;12.10;99.90;;;;;;4941196;29;20670;-73
2024/03/14 05:02:36;;;;;;;4.95;3.25;;;12.00;99.90;;;;;;4924966;29;20244;-74
2024/03/14 05:05:04;;;;;;;5.37;3.40;;;12.00;99.90;;;;;;4945843;29;20236;-74
2024/03/14 05:07:29;;;;;;;4.90;2.50;;;12.00;99.90;;;;;;4952907;29;20177;-74
2024/03/14 05:09:55;;;;;;;6.80;2.70;;;12.00;99.90;;;;;;4940631;29;20177;-74
2024/03/14 05:12:22;;;;;;;6.20;3.67;;;12.00;99.90;;;;;;4948413;28;20571;-74
2024/03/14 05:14:49;;;;;;;4.27;3.40;;;11.90;99.90;;;;;;4932446;29;20185;-74
2024/03/14 05:17:15;;;;;;;5.03;2.92;;;11.90;99.90;;;;;;4935009;29;20651;-74
2024/03/14 05:19:40;;;;;;;5.15;2.50;;;11.90;99.90;;;;;;4935934;29;20177;-74
2024/03/14 05:22:06;;;;;;;6.67;3.37;;;11.90;99.90;;;;;;4941400;29;20685;-74
2024/03/14 05:24:32;;;;;;;5.40;2.83;;;11.90;99.90;;;;;;4956549;28;20259;-74
2024/03/14 05:27:00;;;;;;;2.67;2.47;;;11.80;99.90;;;;;;4951326;29;20640;-74
2024/03/14 05:29:26;;;;;;;5.93;3.67;;;11.90;99.90;;;;;;4936758;29;20581;-74
2024/03/14 05:31:53;;;;;;;5.93;3.47;;;11.80;99.90;;;;;;4935082;29;20216;-74
2024/03/14 05:34:19;;;;;;;3.35;2.67;;;11.80;99.90;;;;;;4935286;29;20608;-74
2024/03/14 05:36:44;;;;;;;3.30;2.50;;;11.80;99.90;;;;;;4943334;29;20782;-74
2024/03/14 05:39:14;;;;;;;4.70;3.10;;;11.80;99.90;;;;;;4937606;29;20982;-74
2024/03/14 05:41:40;;;;;;;4.05;3.70;;;11.70;99.90;;;;;;4935542;29;20180;-74
2024/03/14 05:44:06;;;;;;;4.30;3.90;;;11.70;99.90;;;;;;4936329;29;20185;-75
2024/03/14 05:46:31;;;;;;;4.57;3.50;;;11.70;99.90;;;;;;4935052;29;20307;-74
2024/03/14 05:48:57;;;;;;;8.40;3.23;;;11.60;99.90;;;;;;4936174;29;20173;-74
2024/03/14 05:51:23;;;;;;;4.90;3.03;;;11.60;99.90;;;;;;4935908;29;20270;-74
2024/03/14 05:53:49;;;;;;;5.03;3.10;;;11.60;99.90;;;;;;4952912;29;20200;-74
2024/03/14 05:56:16;;;;;;;8.50;3.97;;;11.60;99.90;;;;;;4935908;29;20216;-75
2024/03/14 05:58:44;;;;;;;4.32;3.92;;;11.60;99.90;;;;;;4944245;29;20187;-75
2024/03/14 06:01:15;;;;;;;4.95;3.85;;;11.60;99.90;;;;;;4937440;29;20216;-74
2024/03/14 06:03:42;;;;;;;5.38;4.38;;;11.60;99.90;;;;;;4935842;29;20245;-74
2024/03/14 06:06:09;;;;;;;4.65;3.38;;;11.50;99.90;;;;;;4935976;29;20197;-75
2024/03/14 06:08:35;;;;;;;6.68;3.53;;;11.50;99.90;;;;;;4935230;29;20180;-76
2024/03/14 06:11:02;;;;;;;6.20;4.20;;;11.50;99.90;;;;;;4936966;29;21013;-79
2024/03/14 06:13:28;;;;;;;4.93;3.78;;;11.50;99.90;;;;;;4935621;29;20253;-79
2024/03/14 06:15:54;;;;;;;5.03;4.43;;;11.50;99.90;;;;;;4945338;29;20192;-80
2024/03/14 06:18:21;;;;;;;7.73;4.23;;;11.40;99.90;;;;;;4936761;29;20600;-80
2024/03/14 06:20:48;;;;;;;5.47;3.85;;;11.40;99.90;;;;;;4929393;29;20600;-79
2024/03/14 06:23:16;;;;;;;5.78;3.88;;;11.40;99.90;;;;;;4957569;29;20205;-79
2024/03/14 06:25:42;;;;;;;5.70;4.20;;;11.40;99.90;;;;;;4970155;29;20307;-80
2024/03/14 06:28:08;;;;;;;10.20;4.90;;;11.40;99.90;;;;;;4956023;28;20173;-79
2024/03/14 06:30:34;;;;;;;7.70;4.60;;;11.40;99.90;;;;;;4964940;29;20683;-80
2024/03/14 06:33:00;;;;;;;5.55;4.60;;;11.30;99.90;;;;;;4944384;29;20651;-81
2024/03/14 06:35:28;;;;;;;7.25;4.80;;;11.30;99.90;;;;;;4944278;29;20264;-81
2024/03/14 06:37:56;;;;;;;5.80;4.97;;;11.30;99.90;;;;;;4955455;29;20199;-81
2024/03/14 06:40:22;;;;;;;7.18;4.05;;;11.30;99.90;;;;;;4957534;28;20181;-81
2024/03/14 06:42:49;;;;;;;9.10;5.18;;;11.30;99.90;;;;;;4944486;29;20197;-80
2024/03/14 06:45:15;;;;;;;5.13;4.47;;;11.30;99.90;;;;;;4948574;29;20197;-80
2024/03/14 06:47:43;;;;;;;9.48;4.60;;;11.40;99.90;;;;;;4949682;29;20172;-80
2024/03/14 06:50:15;;;;;;;4.35;3.95;;;11.40;99.90;;;;;;4949294;29;20185;-80
2024/03/14 06:52:41;;;;;;;6.28;4.95;;;11.40;99.90;;;;;;4958908;28;20209;-81
2024/03/14 06:55:09;;;;;;;9.73;5.20;;;11.40;99.90;;;;;;4941488;29;20231;-82
2024/03/14 06:57:44;;;;;;;5.70;4.65;;;11.50;99.90;;;;;;4962844;28;20531;-80
2024/03/14 07:00:16;;;;;;;6.68;3.85;;;11.50;99.90;;;;;;4934754;29;20188;-80
2024/03/14 07:02:44;;;;;;;5.00;4.50;;;11.60;99.90;;;;;;4950729;28;20255;-79
2024/03/14 07:05:14;;;;;;;7.60;5.15;;;11.70;99.90;;;;;;4940413;29;20201;-79
2024/03/14 07:07:46;;;;;;;6.68;5.45;;;11.70;99.90;;;;;;4940823;29;20210;-77
2024/03/14 07:10:14;;;;;;;6.32;5.22;;;11.90;99.90;;;;;;4949005;29;20184;-77
2024/03/14 07:12:42;;;;;;;5.90;5.30;;;12.00;99.90;;;;;;4936455;29;20200;-77
2024/03/14 07:15:08;;;;;;;5.97;4.67;;;12.10;99.90;;;;;;4923355;29;20666;-77
2024/03/14 07:17:34;;;;;;;7.33;5.33;;;12.30;99.90;;;;;;4938835;29;20604;-77
2024/03/14 07:20:16;;;;;;;8.83;5.67;;;12.40;99.90;;;;;;4938977;29;20616;-77
2024/03/14 07:22:43;;;;;;;5.87;5.03;;;12.50;99.90;;;;;;4936148;29;20646;-77
2024/03/14 07:25:13;;;;;;;5.80;4.27;;;12.70;99.90;;;;;;4934039;29;20775;-75
2024/03/14 07:27:39;;;;;;;5.43;4.93;;;12.70;99.90;;;;;;4933587;29;20671;-76
2024/03/14 07:30:13;;;;;;;6.17;4.47;;;12.80;99.90;;;;;;4928478;29;20596;-76
2024/03/14 07:32:40;;;;;;;5.40;4.63;;;13.00;99.90;;;;;;4933766;29;20972;-77
2024/03/14 07:35:06;;;;;;;6.07;4.47;;;13.10;99.90;;;;;;4927002;29;20597;-78
2024/03/14 07:37:31;;;;;;;4.30;3.90;;;13.10;99.90;;;;;;4933941;29;20607;-77
2024/03/14 07:39:57;;;;;;;8.73;4.60;;;13.30;99.90;;;;;;4916626;29;20581;-77
2024/03/14 07:42:23;;;;;;;7.80;4.53;;;13.30;99.90;;;;;;4935400;29;20227;-77
2024/03/14 07:44:51;;;;;;;6.80;4.53;;;13.40;99.90;;;;;;4921651;29;21123;-79
2024/03/14 07:47:23;;;;;;;5.53;4.43;;;13.40;99.90;;;;;;4933045;29;20192;-77
2024/03/14 07:49:52;;;;;;;4.53;4.13;;;13.50;99.90;;;;;;4916505;29;20971;-77
2024/03/14 07:52:18;;;;;;;4.10;3.70;;;13.70;99.90;;;;;;4937512;29;20615;-78
2024/03/14 07:54:47;;;;;;;5.20;4.40;;;14.10;99.90;;;;;;4951083;28;20957;-77
2024/03/14 07:57:13;;;;;;;4.67;3.93;;;14.60;99.90;;;;;;4932693;29;20268;-77
2024/03/14 07:59:40;;;;;;;7.70;4.10;;;15.00;99.90;;;;;;4933624;29;20624;-77
2024/03/14 08:02:07;;;;;;;5.67;4.00;;;15.40;99.90;;;;;;4939730;28;20632;-77
2024/03/14 08:04:34;;;;;;;5.60;4.20;;;15.90;99.90;;;;;;4933560;29;20593;-76
2024/03/14 08:07:10;;;;;;;4.07;3.67;;;16.50;99.90;;;;;;4940707;29;20633;-77
2024/03/14 08:09:37;;;;;;;6.00;2.80;;;16.80;99.90;;;;;;4933498;29;20643;-77
2024/03/14 08:12:04;;;;;;;4.27;2.90;;;17.10;99.90;;;;;;4932561;29;20620;-77
2024/03/14 08:14:30;;;;;;;4.33;3.17;;;17.50;99.90;;;;;;4932493;29;20630;-79
2024/03/14 08:16:57;;;;;;;4.27;3.00;;;17.80;99.90;;;;;;4933714;29;20588;-78
2024/03/14 08:19:23;;;;;;;4.80;3.03;;;18.00;99.90;;;;;;4932208;29;20592;-79
2024/03/14 08:21:48;;;;;;;5.60;2.73;;;18.40;99.90;;;;;;4931679;29;20625;-78
2024/03/14 08:24:16;;;;;;;3.33;2.40;;;18.70;99.90;;;;;;4933583;29;20651;-78
2024/03/14 08:26:43;;;;;;;3.40;2.40;;;19.00;99.90;;;;;;4933716;29;20216;-80
2024/03/14 08:29:10;;;;;;;3.53;2.30;;;19.10;99.90;;;;;;4911512;29;20597;-79
2024/03/14 08:31:36;;;;;;;3.40;2.53;;;19.10;99.90;;;;;;4933550;29;20928;-79
2024/03/14 08:34:05;;;;;;;4.13;2.70;;;19.10;99.90;;;;;;4931392;29;20607;-78
2024/03/14 08:36:32;;;;;;;3.23;2.20;;;19.10;99.90;;;;;;4933279;29;20192;-78
2024/03/14 08:38:57;;;;;;;5.73;2.37;;;19.20;99.90;;;;;;4937718;29;20675;-80
2024/03/14 08:41:23;;;;;;;3.10;2.03;;;19.20;99.90;;;;;;4936930;29;20596;-79
2024/03/14 08:43:49;;;;;;;3.77;2.53;;;19.20;99.90;;;;;;4937974;29;20326;-79
2024/03/14 08:46:15;;;;;;;2.60;1.97;;;19.20;99.90;;;;;;4943515;28;20295;-79
2024/03/14 08:48:42;;;;;;;4.93;2.30;;;19.00;99.90;;;;;;4933242;29;21234;-78
2024/03/14 08:51:09;;;;;;;3.00;1.60;;;18.80;99.90;;;;;;4935044;29;20267;-79
2024/03/14 08:56:19;;;;;;;2.50;1.53;;;18.50;99.90;;;;;;4933199;29;20636;-79
2024/03/14 08:58:47;;;;;;;3.60;1.57;;;18.50;99.90;;;;;;4936744;29;20628;-79
2024/03/14 09:01:12;;;;;;;2.80;1.93;;;18.40;99.90;;;;;;4941364;29;20185;-79
2024/03/14 09:03:38;;;;;;;2.63;1.63;;;18.30;99.90;;;;;;4957290;28;21031;-79
2024/03/14 09:06:05;;;;;;;3.27;2.27;;;18.40;99.90;;;;;;4936131;29;20217;-78
2024/03/14 09:08:31;;;;;;;3.80;2.40;;;18.40;99.90;;;;;;4936634;29;20561;-78
2024/03/14 09:10:56;;;;;;;3.57;2.10;;;18.40;99.90;;;;;;4935687;29;20581;-78
2024/03/14 09:13:23;;;;;;;2.80;1.90;;;18.50;99.90;;;;;;4937289;29;20197;-78
2024/03/14 09:15:50;;;;;;;3.43;2.00;;;18.70;99.90;;;;;;4949468;29;20184;-78
2024/03/14 09:18:17;;;;;;;3.10;2.23;;;18.90;99.90;;;;;;4937178;29;20691;-77
2024/03/14 09:20:48;;;;;;;2.13;1.80;;;19.00;99.90;;;;;;4934599;29;20605;-77
2024/03/14 09:23:19;;;;;;;2.67;1.80;;;19.10;99.90;;;;;;4936829;29;20612;-78
2024/03/14 09:25:45;;;;;;;3.70;2.57;;;19.20;99.90;;;;;;4944633;29;20644;-80
2024/03/14 09:28:11;;;;;;;3.00;1.80;;;19.40;99.90;;;;;;4945291;29;20634;-79
2024/03/14 09:30:37;;;;;;;5.90;2.20;;;19.40;99.90;;;;;;4940275;29;20252;-79
2024/03/14 09:33:03;;;;;;;3.73;1.93;;;19.50;99.90;;;;;;4956994;29;20625;-81
2024/03/14 09:35:29;;;;;;;2.43;1.90;;;19.40;99.90;;;;;;4966895;28;20204;-83
2024/03/14 09:37:55;;;;;;;2.63;1.50;;;19.50;99.90;;;;;;4937508;29;20204;-79
2024/03/14 09:40:22;;;;;;;3.03;1.83;;;19.60;99.90;;;;;;4934901;29;20600;-80
2024/03/14 09:42:59;;;;;;;3.60;1.90;;;20.00;99.90;;;;;;4934618;29;20612;-80
2024/03/14 09:45:26;;;;;;;2.60;1.37;;;20.20;99.90;;;;;;4935584;29;20632;-79
2024/03/14 09:47:56;;;;;;;1.80;1.07;;;20.20;99.90;;;;;;4928866;29;21194;-80
2024/03/14 09:50:23;;;;;;;3.80;1.73;;;20.20;99.90;;;;;;4937399;29;20596;-80
2024/03/14 09:52:50;;;;;;;2.30;1.53;;;20.60;99.90;;;;;;4939941;29;21179;-80
2024/03/14 09:55:17;;;;;;;2.93;1.77;;;21.00;99.90;;;;;;4948290;29;20612;-79
2024/03/14 09:57:43;;;;;;;2.90;1.57;;;21.20;99.90;;;;;;4936549;29;20607;-78
2024/03/14 10:00:11;;;;;;;3.00;1.70;;;21.50;99.90;;;;;;4935494;29;20593;-78
2024/03/14 10:02:41;;;;;;;3.60;1.73;;;21.70;99.90;;;;;;4940314;29;20632;-79
2024/03/14 10:05:12;;;;;;;3.40;1.40;;;21.90;99.90;;;;;;4935866;29;20620;-78
2024/03/14 10:07:39;;;;;;;2.33;1.70;;;22.00;99.90;;;;;;4936140;29;20696;-78
2024/03/14 10:10:06;;;;;;;2.20;1.20;;;22.00;99.90;;;;;;4918665;29;20588;-79
2024/03/14 10:12:32;;;;;;;2.60;1.50;;;22.00;99.90;;;;;;4935892;29;20620;-78
2024/03/14 10:15:12;;;;;;;3.00;1.60;;;22.10;99.90;;;;;;4936118;29;20593;-78
2024/03/14 10:17:40;;;;;;;2.60;1.30;;;22.20;99.90;;;;;;4934714;29;20600;-78
2024/03/14 10:20:08;;;;;;;2.00;1.30;;;22.20;99.90;;;;;;4919226;29;20589;-80
2024/03/14 10:22:35;;;;;;;2.57;1.77;;;22.10;99.90;;;;;;4936092;29;20730;-79
2024/03/14 10:25:04;;;;;;;2.60;1.40;;;22.20;99.90;;;;;;4936202;29;20620;-79
2024/03/14 10:27:30;;;;;;;6.27;2.23;;;22.20;99.90;;;;;;4935429;29;20937;-79
2024/03/14 10:29:57;;;;;;;2.80;1.10;;;22.20;99.90;;;;;;4935860;29;20581;-79
2024/03/14 10:32:23;;;;;;;1.97;1.27;;;22.30;99.90;;;;;;4936701;29;20620;-79
2024/03/14 10:34:51;;;;;;;2.20;1.53;;;22.40;99.90;;;;;;4935870;29;20616;-80
2024/03/14 10:37:18;;;;;;;2.70;1.67;;;22.60;99.90;;;;;;4937449;29;20569;-80
2024/03/14 10:39:57;;;;;;;1.80;1.10;;;22.70;99.90;;;;;;4936329;29;20688;-79
2024/03/14 10:42:28;;;;;;;2.57;1.30;;;22.90;99.90;;;;;;4930609;29;20608;-80
2024/03/14 10:44:54;;;;;;;2.70;1.20;;;23.00;99.90;;;;;;4937328;29;20609;-80
2024/03/14 10:47:21;;;;;;;2.87;1.00;;;23.20;99.90;;;;;;4937339;29;20617;-80
2024/03/14 10:49:58;;;;;;;2.20;0.83;;;23.20;99.90;;;;;;4935477;29;20176;-79
2024/03/14 10:52:24;;;;;;;2.53;1.20;;;23.00;99.90;;;;;;4937114;29;20617;-80
2024/03/14 10:54:50;;;;;;;1.50;0.87;;;22.70;99.90;;;;;;4936968;29;20680;-80
2024/03/14 10:57:18;;;;;;;2.30;1.07;;;22.40;99.90;;;;;;4937182;29;20640;-81
2024/03/14 10:59:44;;;;;;;1.77;1.10;;;22.00;99.90;;;;;;4936313;29;20604;-80
2024/03/14 11:02:14;;;;;;;2.60;1.10;;;21.50;99.90;;;;;;4938317;29;20687;-80
2024/03/14 11:04:43;;;;;;;4.23;2.80;;;21.30;99.90;;;;;;4940724;29;20625;-78
2024/03/14 11:07:12;;;;;;;2.93;1.70;;;21.00;99.90;;;;;;4935400;29;20640;-80
2024/03/14 11:09:57;;;;;;;2.70;2.00;;;20.90;99.90;;;;;;4943577;29;20593;-80
2024/03/14 11:12:27;;;;;;;2.00;1.03;;;21.00;99.90;;;;;;4935245;29;20631;-80
2024/03/14 11:15:00;;;;;;;1.67;0.83;;;21.30;99.90;;;;;;4936132;29;20617;-80
2024/03/14 11:17:31;;;;;;;2.30;1.33;;;21.90;99.90;;;;;;4936780;29;20577;-79
2024/03/14 11:20:03;;;;;;;3.13;2.63;;;22.30;99.90;;;;;;4927061;29;20592;-80
2024/03/14 11:22:32;;;;;;;2.10;1.00;;;22.90;99.90;;;;;;4919241;29;20776;-80
2024/03/14 11:24:59;;;;;;;2.00;1.20;;;23.40;99.90;;;;;;4936173;29;20587;-80
2024/03/14 11:27:26;;;;;;;3.00;1.53;;;24.00;99.90;;;;;;4934938;29;20735;-80
2024/03/14 11:29:52;;;;;;;2.70;2.10;;;24.40;99.90;;;;;;4935148;29;20599;-79
2024/03/14 11:32:25;;;;;;;2.97;2.00;;;24.50;99.90;;;;;;4935562;29;20979;-79
2024/03/14 11:34:58;;;;;;;2.53;1.30;;;24.50;99.90;;;;;;4935029;29;20610;-79
2024/03/14 11:37:49;;;;;;;2.80;1.70;;;24.80;99.90;;;;;;4931877;29;20632;-80
2024/03/14 11:40:15;;;;;;;2.90;1.67;;;25.10;99.90;;;;;;4933496;29;20651;-80
2024/03/14 11:42:49;;;;;;;1.83;1.17;;;25.10;99.90;;;;;;4935417;29;20616;-80
2024/03/14 11:45:16;;;;;;;1.80;1.33;;;25.10;99.90;;;;;;4932406;29;20639;-80
2024/03/14 11:47:43;;;;;;;2.30;0.97;;;25.10;99.90;;;;;;4932445;29;20598;-80
2024/03/14 11:50:09;;;;;;;2.77;1.13;;;25.20;99.90;;;;;;4933062;29;20619;-80
2024/03/14 11:52:40;;;;;;;2.30;1.43;;;25.40;99.90;;;;;;4933579;29;20623;-80
2024/03/14 11:55:11;;;;;;;1.50;0.80;;;25.40;99.90;;;;;;4932457;29;20588;-80
2024/03/14 11:57:38;;;;;;;2.00;1.10;;;25.20;99.90;;;;;;4932216;29;20609;-80
2024/03/14 12:00:09;;;;;;;2.50;1.83;;;24.90;99.90;;;;;;4933072;29;20648;-80
2024/03/14 12:02:35;;;;;;;2.20;1.20;;;24.60;99.40;;;;;;4916470;29;20634;-78
2024/03/14 12:05:05;;;;;;;2.00;0.80;;;24.50;99.90;;;;;;4932058;29;20634;-79
2024/03/14 12:07:34;;;;;;;2.27;1.00;;;24.40;99.90;;;;;;4936798;29;20625;-78
2024/03/14 12:10:00;;;;;;;1.77;1.00;;;24.40;99.90;;;;;;4941596;29;20803;-78
2024/03/14 12:12:26;;;;;;;1.53;0.73;;;24.50;99.90;;;;;;4940473;28;21022;-78
2024/03/14 12:14:55;;;;;;;2.67;1.10;;;24.60;99.90;;;;;;4933575;29;20628;-79
2024/03/14 12:17:21;;;;;;;2.03;1.40;;;24.70;99.30;;;;;;4931757;29;20597;-78
2024/03/14 12:19:47;;;;;;;3.10;1.23;;;24.70;99.90;;;;;;4948247;29;20632;-78
2024/03/14 12:22:14;;;;;;;2.83;1.30;;;24.50;99.90;;;;;;4931853;29;20218;-79
2024/03/14 12:24:39;;;;;;;2.17;1.10;;;24.30;99.10;;;;;;4896919;29;20186;-79
2024/03/14 12:27:09;;;;;;;2.60;0.90;;;24.10;99.00;;;;;;4930681;29;20719;-80
2024/03/14 12:29:37;;;;;;;1.70;1.10;;;23.90;99.50;;;;;;4933439;29;20627;-80
2024/03/14 12:32:04;;;;;;;2.30;0.93;;;23.90;99.90;;;;;;4947151;28;20628;-80
2024/03/14 12:34:32;;;;;;;2.60;1.03;;;23.90;99.90;;;;;;4932218;29;20589;-80
2024/03/14 12:36:59;;;;;;;1.80;0.80;;;23.80;99.20;;;;;;4941164;29;20596;-78
2024/03/14 12:39:28;;;;;;;4.40;0.83;;;23.70;99.10;;;;;;4952308;28;20982;-80
2024/03/14 12:41:55;;;;;;;2.53;0.80;;;23.60;98.50;;;;;;4934660;29;21252;-79
2024/03/14 12:44:21;;;;;;;1.90;1.03;;;23.40;98.60;;;;;;4952510;28;20595;-79
2024/03/14 12:46:47;;;;;;;6.27;2.77;;;23.30;97.00;;;;;;4937823;29;21020;-80
2024/03/14 12:49:16;;;;;;;5.30;3.33;;;22.90;95.70;;;;;;4963166;28;20184;-78
2024/03/14 12:51:42;;;;;;;4.93;2.33;;;22.60;96.20;;;;;;4932647;29;20596;-79